createdAt,value
2018-12-15T00:00:46.075Z,1.24
2018-12-15T00:01:46.049Z,1.23
2018-12-15T00:02:46.044Z,1.33
2018-12-15T00:03:46.046Z,1.33
2018-12-15T00:04:46.008Z,1.32
2018-12-15T00:05:46.030Z,1.30
2018-12-15T00:06:45.998Z,1.27
2018-12-15T00:07:46.008Z,1.29
2018-12-15T00:08:45.964Z,1.36
2018-12-15T00:09:45.955Z,1.33
2018-12-15T00:10:45.948Z,1.30
2018-12-15T00:11:45.940Z,1.29
2018-12-15T00:12:45.936Z,1.33
2018-12-15T00:13:45.912Z,1.34
2018-12-15T00:14:45.894Z,1.32
2018-12-15T00:15:45.883Z,1.44
2018-12-15T00:16:45.893Z,1.44
2018-12-15T00:17:45.880Z,1.37
2018-12-15T00:18:45.852Z,1.48
2018-12-15T00:19:45.868Z,1.51
2018-12-15T00:20:45.847Z,1.51
2018-12-15T00:21:45.814Z,1.34
2018-12-15T00:22:45.817Z,1.34
2018-12-15T00:23:45.824Z,1.47
2018-12-15T00:24:45.830Z,1.37
2018-12-15T00:25:45.777Z,1.42
2018-12-15T00:26:45.772Z,1.36
2018-12-15T00:27:45.763Z,1.29
2018-12-15T00:28:45.747Z,1.45
2018-12-15T00:29:45.748Z,1.34
2018-12-15T00:30:45.730Z,1.30
2018-12-15T00:31:45.707Z,1.30
2018-12-15T00:32:45.747Z,1.26
2018-12-15T00:33:45.693Z,1.24
2018-12-15T00:34:45.707Z,1.29
2018-12-15T00:35:45.667Z,1.22
2018-12-15T00:36:45.661Z,1.18
2018-12-15T00:37:45.677Z,1.18
2018-12-15T00:38:45.641Z,1.16
2018-12-15T00:39:45.623Z,1.22
2018-12-15T00:40:45.639Z,1.23
2018-12-15T00:41:45.617Z,1.14
2018-12-15T00:42:45.691Z,1.15
2018-12-15T00:43:45.610Z,1.29
2018-12-15T00:44:45.577Z,1.22
2018-12-15T00:45:45.565Z,1.29
2018-12-15T00:46:45.553Z,1.30
2018-12-15T00:47:45.542Z,1.32
2018-12-15T00:48:45.547Z,1.40
2018-12-15T00:49:45.514Z,1.42
2018-12-15T00:50:45.513Z,1.44
2018-12-15T00:51:45.499Z,1.40
2018-12-15T00:52:45.480Z,1.45
2018-12-15T00:53:45.483Z,1.41
2018-12-15T00:54:45.467Z,1.47
2018-12-15T00:55:45.464Z,1.45
2018-12-15T00:56:45.442Z,1.40
2018-12-15T00:57:45.436Z,1.47
2018-12-15T00:58:45.452Z,1.45
2018-12-15T00:59:45.425Z,1.47
2018-12-15T01:00:45.395Z,1.42
2018-12-15T01:01:45.386Z,1.50
2018-12-15T01:02:45.379Z,1.48
2018-12-15T01:03:45.403Z,1.41
2018-12-15T01:04:45.361Z,1.40
2018-12-15T01:05:45.352Z,1.45
2018-12-15T01:06:45.332Z,1.45
2018-12-15T01:07:45.321Z,1.48
2018-12-15T01:08:45.355Z,1.55
2018-12-15T01:09:45.320Z,1.40
2018-12-15T01:10:45.300Z,1.45
2018-12-15T01:11:45.310Z,1.42
2018-12-15T01:12:45.266Z,1.48
2018-12-15T01:13:45.273Z,1.37
2018-12-15T01:14:45.251Z,1.47
2018-12-15T01:15:45.231Z,1.42
2018-12-15T01:16:45.231Z,1.37
2018-12-15T01:17:45.207Z,1.32
2018-12-15T01:18:45.231Z,1.34
2018-12-15T01:19:45.185Z,1.37
2018-12-15T01:20:45.171Z,1.30
2018-12-15T01:21:45.168Z,1.26
2018-12-15T01:22:45.167Z,1.30
2018-12-15T01:23:45.154Z,1.24
2018-12-15T01:24:45.139Z,1.27
2018-12-15T01:25:45.146Z,1.29
2018-12-15T01:26:45.150Z,1.29
2018-12-15T01:27:45.112Z,1.30
2018-12-15T01:28:45.090Z,1.26
2018-12-15T01:29:45.090Z,1.30
2018-12-15T01:30:45.057Z,1.29
2018-12-15T01:31:45.070Z,1.29
2018-12-15T01:32:45.055Z,1.40
2018-12-15T01:33:45.040Z,1.45
2018-12-15T01:34:45.049Z,1.32
2018-12-15T01:35:45.018Z,1.37
2018-12-15T01:36:45.007Z,1.36
2018-12-15T01:37:44.991Z,1.37
2018-12-15T01:38:44.987Z,1.42
2018-12-15T01:39:44.985Z,1.37
2018-12-15T01:40:44.963Z,1.32
2018-12-15T01:41:44.943Z,1.41
2018-12-15T01:42:44.945Z,1.32
2018-12-15T01:43:44.943Z,1.33
2018-12-15T01:44:44.931Z,1.30
2018-12-15T01:45:44.921Z,1.29
2018-12-15T01:46:44.891Z,1.26
2018-12-15T01:47:44.925Z,1.18
2018-12-15T01:48:44.873Z,1.08
2018-12-15T01:49:44.878Z,1.06
2018-12-15T01:50:44.841Z,0.96
2018-12-15T01:51:44.845Z,0.94
2018-12-15T01:52:44.834Z,0.97
2018-12-15T01:53:44.816Z,0.93
2018-12-15T01:54:44.819Z,1.02
2018-12-15T01:55:44.809Z,0.88
2018-12-15T01:56:44.789Z,0.96
2018-12-15T01:57:44.782Z,0.91
2018-12-15T01:58:44.767Z,1.02
2018-12-15T01:59:44.774Z,1.04
2018-12-15T02:00:44.785Z,1.02
2018-12-15T02:01:44.730Z,0.98
2018-12-15T02:02:44.717Z,1.04
2018-12-15T02:03:44.704Z,1.08
2018-12-15T02:04:44.707Z,1.00
2018-12-15T02:05:44.700Z,1.02
2018-12-15T02:06:44.674Z,0.94
2018-12-15T02:07:44.663Z,0.93
2018-12-15T02:08:44.670Z,0.96
2018-12-15T02:09:44.643Z,0.91
2018-12-15T02:10:44.651Z,0.84
2018-12-15T02:11:44.621Z,0.88
2018-12-15T02:12:44.619Z,0.88
2018-12-15T02:13:44.604Z,0.94
2018-12-15T02:14:44.599Z,0.90
2018-12-15T02:15:44.590Z,0.93
2018-12-15T02:16:44.582Z,0.84
2018-12-15T02:17:44.559Z,0.91
2018-12-15T02:18:44.560Z,0.90
2018-12-15T02:19:44.528Z,0.91
2018-12-15T02:20:44.548Z,0.97
2018-12-15T02:21:44.504Z,0.97
2018-12-15T02:22:44.507Z,0.91
2018-12-15T02:23:44.496Z,1.02
2018-12-15T02:24:44.495Z,0.88
2018-12-15T02:25:44.495Z,1.02
2018-12-15T02:26:44.466Z,1.00
2018-12-15T02:27:44.447Z,0.98
2018-12-15T02:28:44.444Z,0.86
2018-12-15T02:29:44.426Z,0.88
2018-12-15T02:30:44.476Z,0.91
2018-12-15T02:31:44.398Z,0.87
2018-12-15T02:32:44.398Z,0.90
2018-12-15T02:33:44.403Z,0.88
2018-12-15T02:34:44.382Z,0.86
2018-12-15T02:35:44.374Z,0.75
2018-12-15T02:36:44.355Z,0.75
2018-12-15T02:37:44.359Z,0.70
2018-12-15T02:38:44.330Z,0.70
2018-12-15T02:39:44.338Z,0.75
2018-12-15T02:40:44.347Z,0.72
2018-12-15T02:41:47.267Z,0.78
2018-12-15T02:42:44.286Z,0.73
2018-12-15T02:43:44.270Z,0.79
2018-12-15T02:44:44.272Z,0.75
2018-12-15T02:45:44.260Z,0.73
2018-12-15T02:46:44.285Z,0.83
2018-12-15T02:47:44.228Z,0.86
2018-12-15T02:48:44.216Z,0.80
2018-12-15T02:49:44.211Z,0.94
2018-12-15T02:50:44.212Z,1.00
2018-12-15T02:51:44.191Z,0.93
2018-12-15T02:52:44.181Z,0.94
2018-12-15T02:53:44.207Z,0.97
2018-12-15T02:54:44.161Z,0.96
2018-12-15T02:55:44.141Z,0.96
2018-12-15T02:56:44.151Z,1.00
2018-12-15T02:57:44.126Z,0.94
2018-12-15T02:58:44.109Z,1.00
2018-12-15T02:59:44.213Z,0.98
2018-12-15T03:00:44.095Z,0.94
2018-12-15T03:01:44.131Z,0.91
2018-12-15T03:02:44.083Z,0.91
2018-12-15T03:03:44.069Z,0.86
2018-12-15T03:04:44.063Z,0.90
2018-12-15T03:05:44.029Z,0.87
2018-12-15T03:06:44.037Z,0.98
2018-12-15T03:07:44.014Z,1.05
2018-12-15T03:08:44.003Z,0.98
2018-12-15T03:09:44.001Z,1.02
2018-12-15T03:10:44.000Z,1.04
2018-12-15T03:11:43.976Z,1.05
2018-12-15T03:12:43.975Z,1.06
2018-12-15T03:13:43.953Z,1.05
2018-12-15T03:14:43.937Z,0.97
2018-12-15T03:15:43.929Z,1.04
2018-12-15T03:16:44.067Z,0.97
2018-12-15T03:17:48.907Z,1.08
2018-12-15T03:18:44.938Z,1.08
2018-12-15T03:19:43.882Z,1.04
2018-12-15T03:20:43.889Z,1.08
2018-12-15T03:21:43.908Z,1.09
2018-12-15T03:22:43.867Z,1.11
2018-12-15T03:23:43.921Z,1.16
2018-12-15T03:24:43.892Z,1.15
2018-12-15T03:25:43.830Z,1.18
2018-12-15T03:26:43.826Z,1.05
2018-12-15T03:27:43.806Z,1.11
2018-12-15T03:28:43.818Z,1.14
2018-12-15T03:29:43.796Z,1.06
2018-12-15T03:30:43.787Z,1.12
2018-12-15T03:31:43.760Z,1.06
2018-12-15T03:32:43.770Z,1.16
2018-12-15T03:33:43.760Z,1.23
2018-12-15T03:34:43.740Z,1.15
2018-12-15T03:35:43.724Z,1.18
2018-12-15T03:36:43.693Z,1.26
2018-12-15T03:37:43.724Z,1.24
2018-12-15T03:38:43.675Z,1.20
2018-12-15T03:39:43.672Z,1.20
2018-12-15T03:40:43.655Z,1.26
2018-12-15T03:41:43.693Z,1.18
2018-12-15T03:42:43.652Z,1.26
2018-12-15T03:43:43.625Z,1.22
2018-12-15T03:44:43.608Z,1.22
2018-12-15T03:45:43.603Z,1.20
2018-12-15T03:46:43.590Z,1.18
2018-12-15T03:47:43.596Z,1.26
2018-12-15T03:48:43.572Z,1.16
2018-12-15T03:49:43.549Z,1.18
2018-12-15T03:50:43.545Z,1.20
2018-12-15T03:51:43.534Z,1.09
2018-12-15T03:52:43.532Z,1.08
2018-12-15T03:53:43.519Z,1.02
2018-12-15T03:54:43.510Z,1.04
2018-12-15T03:55:43.488Z,1.08
2018-12-15T03:56:43.489Z,1.00
2018-12-15T03:57:43.506Z,0.96
2018-12-15T03:58:43.462Z,0.93
2018-12-15T03:59:43.442Z,0.97
2018-12-15T04:00:43.432Z,0.96
2018-12-15T04:01:43.426Z,0.88
2018-12-15T04:02:43.435Z,0.94
2018-12-15T04:03:43.407Z,0.98
2018-12-15T04:04:43.394Z,1.04
2018-12-15T04:05:43.384Z,0.98
2018-12-15T04:06:43.368Z,1.02
2018-12-15T04:07:43.384Z,1.05
2018-12-15T04:08:43.342Z,0.96
2018-12-15T04:09:43.332Z,0.93
2018-12-15T04:10:43.321Z,0.88
2018-12-15T04:11:43.310Z,0.79
2018-12-15T04:12:43.322Z,0.88
2018-12-15T04:13:43.296Z,0.78
2018-12-15T04:14:43.290Z,0.73
2018-12-15T04:15:43.279Z,0.73
2018-12-15T04:16:43.272Z,0.75
2018-12-15T04:17:43.276Z,0.66
2018-12-15T04:18:43.240Z,0.73
2018-12-15T04:19:43.233Z,0.70
2018-12-15T04:20:43.213Z,0.70
2018-12-15T04:21:43.207Z,0.75
2018-12-15T04:22:43.198Z,0.70
2018-12-15T04:23:43.191Z,0.73
2018-12-15T04:24:43.177Z,0.72
2018-12-15T04:25:43.166Z,0.76
2018-12-15T04:26:43.159Z,0.73
2018-12-15T04:27:43.142Z,0.68
2018-12-15T04:28:43.154Z,0.72
2018-12-15T04:29:43.146Z,0.72
2018-12-15T04:30:43.111Z,0.75
2018-12-15T04:31:43.117Z,0.68
2018-12-15T04:32:45.346Z,0.66
2018-12-15T04:33:43.083Z,0.62
2018-12-15T04:34:43.096Z,0.58
2018-12-15T04:35:43.046Z,0.61
2018-12-15T04:36:43.045Z,0.60
2018-12-15T04:37:43.054Z,0.57
2018-12-15T04:38:43.047Z,0.55
2018-12-15T04:39:43.007Z,0.60
2018-12-15T04:40:43.003Z,0.60
2018-12-15T04:41:42.982Z,0.47
2018-12-15T04:42:42.981Z,0.57
2018-12-15T04:43:42.994Z,0.53
2018-12-15T04:44:42.970Z,0.58
2018-12-15T04:45:42.957Z,0.60
2018-12-15T04:46:42.951Z,0.53
2018-12-15T04:47:42.928Z,0.58
2018-12-15T04:48:42.941Z,0.61
2018-12-15T04:49:42.916Z,0.62
2018-12-15T04:50:42.899Z,0.60
2018-12-15T04:51:42.882Z,0.53
2018-12-15T04:52:42.885Z,0.53
2018-12-15T04:53:42.857Z,0.55
2018-12-15T04:54:42.867Z,0.53
2018-12-15T04:55:42.833Z,0.47
2018-12-15T04:56:42.835Z,0.53
2018-12-15T04:57:42.817Z,0.46
2018-12-15T04:58:42.800Z,0.51
2018-12-15T04:59:42.796Z,0.49
2018-12-15T05:00:42.794Z,0.57
2018-12-15T05:01:42.771Z,0.50
2018-12-15T05:02:44.027Z,0.55
2018-12-15T05:03:42.753Z,0.53
2018-12-15T05:04:42.768Z,0.50
2018-12-15T05:05:42.723Z,0.49
2018-12-15T05:06:42.717Z,0.47
2018-12-15T05:07:42.715Z,0.44
2018-12-15T05:08:42.690Z,0.49
2018-12-15T05:09:42.705Z,0.50
2018-12-15T05:10:42.671Z,0.49
2018-12-15T05:11:42.657Z,0.44
2018-12-15T05:12:42.661Z,0.49
2018-12-15T05:13:42.635Z,0.50
2018-12-15T05:14:42.668Z,0.46
2018-12-15T05:15:42.612Z,0.50
2018-12-15T05:16:42.620Z,0.49
2018-12-15T05:17:42.606Z,0.51
2018-12-15T05:18:42.598Z,0.51
2018-12-15T05:19:42.598Z,0.46
2018-12-15T05:20:42.560Z,0.46
2018-12-15T05:21:42.548Z,0.51
2018-12-15T05:22:42.543Z,0.47
2018-12-15T05:23:42.548Z,0.47
2018-12-15T05:24:42.537Z,0.46
2018-12-15T05:25:42.522Z,0.46
2018-12-15T05:26:42.498Z,0.51
2018-12-15T05:27:42.499Z,0.46
2018-12-15T05:28:42.480Z,0.44
2018-12-15T05:29:42.487Z,0.46
2018-12-15T05:30:42.469Z,0.42
2018-12-15T05:31:42.448Z,0.50
2018-12-15T05:32:42.437Z,0.44
2018-12-15T05:33:42.468Z,0.44
2018-12-15T05:34:42.440Z,0.42
2018-12-15T05:35:42.417Z,0.50
2018-12-15T05:36:42.524Z,0.47
2018-12-15T05:37:42.384Z,0.39
2018-12-15T05:38:42.373Z,0.46
2018-12-15T05:39:42.370Z,0.47
2018-12-15T05:40:42.350Z,0.44
2018-12-15T05:41:42.334Z,0.51
2018-12-15T05:42:42.332Z,0.47
2018-12-15T05:43:42.320Z,0.46
2018-12-15T05:44:42.330Z,0.39
2018-12-15T05:45:42.289Z,0.49
2018-12-15T05:46:42.300Z,0.39
2018-12-15T05:47:42.266Z,0.46
2018-12-15T05:48:42.278Z,0.41
2018-12-15T05:49:42.275Z,0.50
2018-12-15T05:50:42.245Z,0.42
2018-12-15T05:51:42.225Z,0.44
2018-12-15T05:52:42.218Z,0.42
2018-12-15T05:53:42.199Z,0.46
2018-12-15T05:54:42.219Z,0.32
2018-12-15T05:55:42.198Z,0.39
2018-12-15T05:56:42.172Z,0.42
2018-12-15T05:57:42.159Z,0.35
2018-12-15T05:58:42.148Z,0.28
2018-12-15T05:59:42.173Z,0.38
2018-12-15T06:00:42.144Z,0.36
2018-12-15T06:01:42.129Z,0.28
2018-12-15T06:02:42.108Z,0.35
2018-12-15T06:03:42.092Z,0.38
2018-12-15T06:04:42.114Z,0.36
2018-12-15T06:05:42.079Z,0.35
2018-12-15T06:06:42.074Z,0.38
2018-12-15T06:07:42.048Z,0.33
2018-12-15T06:08:42.048Z,0.33
2018-12-15T06:09:42.043Z,0.36
2018-12-15T06:10:42.014Z,0.35
2018-12-15T06:11:42.008Z,0.36
2018-12-15T06:12:41.998Z,0.36
2018-12-15T06:13:41.982Z,0.36
2018-12-15T06:14:42.012Z,0.33
2018-12-15T06:15:41.971Z,0.32
2018-12-15T06:16:41.961Z,0.38
2018-12-15T06:17:41.948Z,0.35
2018-12-15T06:18:41.946Z,0.44
2018-12-15T06:19:41.940Z,0.42
2018-12-15T06:20:41.927Z,0.42
2018-12-15T06:21:41.903Z,0.47
2018-12-15T06:22:41.883Z,0.50
2018-12-15T06:23:41.882Z,0.47
2018-12-15T06:24:41.864Z,0.49
2018-12-15T06:25:41.871Z,0.46
2018-12-15T06:26:41.850Z,0.47
2018-12-15T06:27:41.839Z,0.50
2018-12-15T06:28:41.818Z,0.47
2018-12-15T06:29:41.813Z,0.51
2018-12-15T06:30:41.815Z,0.49
2018-12-15T06:31:41.795Z,0.31
2018-12-15T06:32:41.790Z,0.39
2018-12-15T06:33:41.764Z,0.31
2018-12-15T06:34:41.759Z,0.41
2018-12-15T06:35:41.759Z,0.31
2018-12-15T06:36:41.749Z,0.35
2018-12-15T06:37:41.724Z,0.35
2018-12-15T06:38:41.718Z,0.32
2018-12-15T06:39:41.702Z,0.35
2018-12-15T06:40:42.024Z,0.41
2018-12-15T06:41:41.687Z,0.32
2018-12-15T06:42:41.679Z,0.46
2018-12-15T06:43:41.669Z,0.46
2018-12-15T06:44:41.704Z,0.41
2018-12-15T06:45:41.679Z,0.50
2018-12-15T06:46:41.627Z,0.41
2018-12-15T06:47:41.629Z,0.49
2018-12-15T06:48:41.602Z,0.58
2018-12-15T06:49:41.599Z,0.51
2018-12-15T06:50:41.609Z,0.44
2018-12-15T06:51:41.574Z,0.53
2018-12-15T06:52:41.561Z,0.50
2018-12-15T06:53:41.556Z,0.49
2018-12-15T06:54:41.544Z,0.53
2018-12-15T06:55:41.563Z,0.55
2018-12-15T06:56:41.540Z,0.47
2018-12-15T06:57:41.508Z,0.49
2018-12-15T06:58:41.496Z,0.51
2018-12-15T06:59:41.494Z,0.50
2018-12-15T07:00:41.475Z,0.51
2018-12-15T07:01:41.485Z,0.51
2018-12-15T07:02:41.464Z,0.42
2018-12-15T07:03:41.460Z,0.49
2018-12-15T07:04:41.434Z,0.47
2018-12-15T07:05:41.428Z,0.46
2018-12-15T07:06:42.109Z,0.47
2018-12-15T07:07:41.394Z,0.49
2018-12-15T07:08:41.392Z,0.47
2018-12-15T07:09:41.378Z,0.47
2018-12-15T07:10:41.366Z,0.46
2018-12-15T07:11:41.374Z,0.49
2018-12-15T07:12:41.341Z,0.50
2018-12-15T07:13:41.335Z,0.44
2018-12-15T07:14:41.320Z,0.50
2018-12-15T07:15:41.348Z,0.50
2018-12-15T07:16:41.330Z,0.44
2018-12-15T07:17:41.300Z,0.41
2018-12-15T07:18:44.841Z,0.32
2018-12-15T07:19:41.268Z,0.41
2018-12-15T07:20:41.260Z,0.42
2018-12-15T07:21:41.289Z,0.31
2018-12-15T07:22:41.233Z,0.29
2018-12-15T07:23:41.227Z,0.35
2018-12-15T07:24:41.221Z,0.36
2018-12-15T07:25:41.212Z,0.39
2018-12-15T07:26:41.219Z,0.33
2018-12-15T07:27:41.191Z,0.28
2018-12-15T07:28:41.172Z,0.31
2018-12-15T07:29:41.169Z,0.28
2018-12-15T07:30:41.143Z,0.26
2018-12-15T07:31:41.161Z,0.28
2018-12-15T07:32:41.132Z,0.35
2018-12-15T07:33:41.168Z,0.38
2018-12-15T07:34:41.125Z,0.38
2018-12-15T07:35:41.093Z,0.41
2018-12-15T07:36:41.117Z,0.31
2018-12-15T07:37:41.075Z,0.28
2018-12-15T07:38:41.059Z,0.32
2018-12-15T07:39:41.051Z,0.38
2018-12-15T07:40:41.044Z,0.29
2018-12-15T07:41:41.033Z,0.28
2018-12-15T07:42:41.028Z,0.31
2018-12-15T07:43:41.995Z,0.26
2018-12-15T07:44:41.006Z,0.29
2018-12-15T07:45:41.022Z,0.31
2018-12-15T07:46:40.986Z,0.29
2018-12-15T07:47:40.983Z,0.29
2018-12-15T07:48:40.977Z,0.31
2018-12-15T07:49:40.943Z,0.31
2018-12-15T07:50:40.963Z,0.31
2018-12-15T07:51:40.945Z,0.28
2018-12-15T07:52:40.923Z,0.24
2018-12-15T07:53:40.908Z,0.42
2018-12-15T07:54:40.955Z,0.42
2018-12-15T07:55:40.907Z,0.42
2018-12-15T07:56:40.874Z,0.49
2018-12-15T07:57:40.877Z,0.42
2018-12-15T07:58:40.850Z,0.44
2018-12-15T07:59:40.832Z,0.36
2018-12-15T08:00:40.820Z,0.38
2018-12-15T08:01:40.876Z,0.35
2018-12-15T08:02:40.817Z,0.47
2018-12-15T08:03:40.892Z,0.35
2018-12-15T08:04:40.778Z,0.39
2018-12-15T08:05:40.820Z,0.50
2018-12-15T08:06:40.760Z,0.38
2018-12-15T08:07:40.764Z,0.35
2018-12-15T08:08:40.737Z,0.38
2018-12-15T08:09:40.741Z,0.39
2018-12-15T08:10:40.738Z,0.31
2018-12-15T08:11:40.715Z,0.38
2018-12-15T08:12:40.718Z,0.35
2018-12-15T08:13:40.695Z,0.32
2018-12-15T08:14:40.684Z,0.36
2018-12-15T08:15:40.670Z,0.35
2018-12-15T08:16:40.668Z,0.39
2018-12-15T08:17:40.678Z,0.38
2018-12-15T08:18:40.631Z,0.35
2018-12-15T08:19:40.620Z,0.28
2018-12-15T08:20:40.616Z,0.35
2018-12-15T08:21:40.600Z,0.28
2018-12-15T08:22:40.607Z,0.39
2018-12-15T08:23:40.605Z,0.44
2018-12-15T08:24:40.564Z,0.38
2018-12-15T08:25:40.556Z,0.35
2018-12-15T08:26:40.544Z,0.41
2018-12-15T08:27:40.533Z,0.36
2018-12-15T08:28:40.537Z,0.39
2018-12-15T08:29:40.511Z,0.36
2018-12-15T08:30:40.495Z,0.35
2018-12-15T08:31:40.488Z,0.36
2018-12-15T08:32:40.485Z,0.36
2018-12-15T08:33:40.500Z,0.38
2018-12-15T08:34:40.456Z,0.39
2018-12-15T08:35:40.447Z,0.38
2018-12-15T08:36:40.431Z,0.47
2018-12-15T08:37:40.429Z,0.44
2018-12-15T08:38:40.424Z,0.49
2018-12-15T08:39:40.407Z,0.55
2018-12-15T08:40:40.387Z,0.49
2018-12-15T08:41:40.387Z,0.49
2018-12-15T08:42:40.372Z,0.53
2018-12-15T08:43:40.400Z,0.60
2018-12-15T08:44:40.375Z,0.66
2018-12-15T08:45:40.339Z,0.61
2018-12-15T08:46:40.313Z,0.60
2018-12-15T08:47:40.320Z,0.55
2018-12-15T08:48:40.310Z,0.65
2018-12-15T08:49:40.301Z,0.66
2018-12-15T08:50:40.279Z,0.65
2018-12-15T08:51:40.273Z,0.66
2018-12-15T08:52:40.255Z,0.66
2018-12-15T08:53:40.275Z,0.70
2018-12-15T08:54:40.239Z,0.75
2018-12-15T08:55:40.227Z,0.70
2018-12-15T08:56:40.214Z,0.70
2018-12-15T08:57:40.206Z,0.72
2018-12-15T08:58:40.215Z,0.73
2018-12-15T08:59:40.179Z,0.75
2018-12-15T09:00:40.171Z,0.80
2018-12-15T09:01:40.160Z,0.70
2018-12-15T09:02:40.181Z,0.73
2018-12-15T09:03:40.145Z,0.72
2018-12-15T09:04:40.136Z,0.76
2018-12-15T09:05:40.123Z,0.73
2018-12-15T09:06:40.108Z,0.72
2018-12-15T09:07:40.100Z,0.87
2018-12-15T09:08:40.181Z,0.80
2018-12-15T09:09:40.073Z,0.87
2018-12-15T09:12:13.587Z,0.78
2018-12-15T09:12:50.576Z,0.84
2018-12-15T09:15:00.190Z,0.93
2018-12-15T09:16:02.200Z,0.84
2018-12-15T09:16:59.293Z,0.86
2018-12-15T09:18:00.208Z,0.80
2018-12-15T09:19:02.199Z,0.78
2018-12-15T09:19:59.292Z,0.83
2018-12-15T09:20:59.247Z,0.80
2018-12-15T09:21:59.240Z,0.80
2018-12-15T09:22:59.216Z,0.79
2018-12-15T09:23:59.226Z,0.83
2018-12-15T09:24:59.202Z,0.83
2018-12-15T09:25:59.196Z,0.79
2018-12-15T09:26:59.175Z,0.76
2018-12-15T09:27:59.175Z,0.78
2018-12-15T09:28:59.160Z,0.78
2018-12-15T09:29:59.172Z,0.83
2018-12-15T09:30:59.140Z,0.79
2018-12-15T09:31:59.145Z,0.83
2018-12-15T09:32:59.118Z,0.73
2018-12-15T09:33:59.104Z,0.76
2018-12-15T09:34:59.134Z,0.86
2018-12-15T09:35:59.077Z,0.73
2018-12-15T09:36:59.083Z,0.73
2018-12-15T09:37:59.060Z,0.76
2018-12-15T09:38:59.069Z,0.79
2018-12-15T09:39:59.043Z,0.80
2018-12-15T09:40:59.029Z,0.88
2018-12-15T09:41:59.015Z,0.87
2018-12-15T09:42:59.021Z,0.94
2018-12-15T09:43:58.995Z,0.93
2018-12-15T09:44:59.001Z,0.91
2018-12-15T09:45:58.997Z,0.98
2018-12-15T09:46:58.968Z,0.91
2018-12-15T09:47:58.943Z,0.93
2018-12-15T09:48:58.925Z,0.84
2018-12-15T09:49:58.954Z,0.87
2018-12-15T09:50:58.916Z,0.87
2018-12-15T09:51:58.992Z,0.93
2018-12-15T09:52:58.892Z,0.87
2018-12-15T09:53:58.888Z,0.88
2018-12-15T09:54:58.902Z,0.90
2018-12-15T09:55:58.854Z,0.86
2018-12-15T09:56:58.915Z,0.88
2018-12-15T09:57:58.838Z,0.91
2018-12-15T09:58:58.864Z,0.90
2018-12-15T09:59:58.863Z,0.87
2018-12-15T10:00:58.846Z,0.83
2018-12-15T10:01:58.842Z,0.80
2018-12-15T10:02:58.800Z,0.80
2018-12-15T10:03:58.823Z,0.96
2018-12-15T10:04:58.779Z,0.90
2018-12-15T10:05:58.776Z,0.87
2018-12-15T10:06:58.743Z,0.91
2018-12-15T10:07:58.725Z,0.91
2018-12-15T10:08:58.718Z,0.94
2018-12-15T10:09:58.708Z,0.98
2018-12-15T10:10:58.713Z,0.84
2018-12-15T10:11:58.690Z,0.93
2018-12-15T10:12:58.674Z,0.93
2018-12-15T10:13:58.659Z,0.91
2018-12-15T10:14:58.667Z,0.94
2018-12-15T10:15:58.668Z,0.94
2018-12-15T10:16:58.667Z,0.94
2018-12-15T10:17:58.660Z,0.93
2018-12-15T10:18:58.607Z,0.84
2018-12-15T10:19:58.604Z,0.88
2018-12-15T10:20:58.599Z,0.87
2018-12-15T10:21:58.575Z,0.93
2018-12-15T10:22:58.556Z,0.96
2018-12-15T10:23:58.553Z,0.91
2018-12-15T10:24:58.548Z,0.96
2018-12-15T10:25:58.548Z,0.98
2018-12-15T10:26:58.521Z,0.94
2018-12-15T10:27:58.516Z,0.91
2018-12-15T10:28:58.488Z,0.87
2018-12-15T10:29:58.501Z,1.02
2018-12-15T10:30:58.522Z,0.94
2018-12-15T10:31:58.466Z,0.96
2018-12-15T10:32:58.446Z,0.96
2018-12-15T10:33:58.442Z,0.96
2018-12-15T10:34:58.454Z,0.90
2018-12-15T10:35:58.444Z,0.94
2018-12-15T10:36:58.414Z,0.97
2018-12-15T10:37:58.412Z,0.94
2018-12-15T10:38:58.392Z,0.96
2018-12-15T10:39:58.423Z,0.97
2018-12-15T10:40:58.410Z,1.05
2018-12-15T10:41:58.358Z,0.97
2018-12-15T10:42:58.376Z,1.04
2018-12-15T10:43:58.342Z,1.00
2018-12-15T10:44:58.315Z,0.98
2018-12-15T10:45:58.321Z,1.06
2018-12-15T10:46:58.312Z,1.04
2018-12-15T10:47:58.342Z,1.06
2018-12-15T10:48:58.277Z,1.06
2018-12-15T10:49:58.283Z,1.09
2018-12-15T10:50:58.258Z,1.00
2018-12-15T10:51:59.223Z,1.12
2018-12-15T10:52:58.227Z,1.11
2018-12-15T10:53:58.239Z,1.09
2018-12-15T10:54:58.206Z,1.09
2018-12-15T10:55:58.197Z,1.12
2018-12-15T10:56:58.227Z,1.08
2018-12-15T10:57:58.181Z,1.08
2018-12-15T10:58:58.168Z,1.04
2018-12-15T10:59:58.169Z,1.08
2018-12-15T11:00:58.148Z,1.06
2018-12-15T11:01:58.165Z,1.11
2018-12-15T11:02:58.114Z,1.09
2018-12-15T11:04:00.850Z,1.00
2018-12-15T11:04:58.122Z,1.04
2018-12-15T11:05:58.087Z,1.06
2018-12-15T11:06:58.084Z,1.08
2018-12-15T11:07:58.089Z,1.09
2018-12-15T11:08:58.063Z,1.05
2018-12-15T11:09:58.055Z,1.00
2018-12-15T11:10:58.053Z,1.08
2018-12-15T11:11:58.035Z,1.06
2018-12-15T11:12:58.010Z,1.05
2018-12-15T11:13:58.007Z,1.08
2018-12-15T11:14:57.988Z,1.18
2018-12-15T11:15:57.993Z,1.09
2018-12-15T11:16:57.999Z,1.15
2018-12-15T11:17:57.967Z,1.20
2018-12-15T11:18:57.948Z,1.26
2018-12-15T11:19:57.944Z,1.18
2018-12-15T11:20:57.929Z,1.14
2018-12-15T11:21:57.926Z,1.22
2018-12-15T11:22:57.907Z,1.16
2018-12-15T11:23:57.899Z,1.14
2018-12-15T11:24:57.965Z,1.23
2018-12-15T11:25:57.869Z,1.20
2018-12-15T11:26:57.899Z,1.24
2018-12-15T11:27:57.842Z,1.22
2018-12-15T11:28:57.840Z,1.33
2018-12-15T11:29:57.830Z,1.27
2018-12-15T11:30:57.817Z,1.23
2018-12-15T11:31:57.834Z,1.26
2018-12-15T11:32:57.793Z,1.32
2018-12-15T11:33:57.781Z,1.32
2018-12-15T11:34:57.786Z,1.24
2018-12-15T11:35:57.752Z,1.29
2018-12-15T11:36:57.756Z,1.29
2018-12-15T11:37:57.757Z,1.24
2018-12-15T11:38:57.724Z,1.30
2018-12-15T11:39:57.715Z,1.14
2018-12-15T11:40:57.710Z,1.18
2018-12-15T11:41:57.692Z,1.14
2018-12-15T11:42:57.705Z,1.12
2018-12-15T11:43:57.670Z,1.06
2018-12-15T11:44:57.661Z,1.11
2018-12-15T11:45:57.648Z,1.09
2018-12-15T11:46:57.646Z,1.06
2018-12-15T11:47:57.643Z,1.11
2018-12-15T11:48:57.630Z,1.06
2018-12-15T11:49:57.635Z,1.12
2018-12-15T11:50:57.610Z,1.08
2018-12-15T11:51:57.581Z,1.11
2018-12-15T11:52:57.637Z,1.02
2018-12-15T11:53:57.559Z,1.02
2018-12-15T11:54:57.558Z,1.00
2018-12-15T11:55:57.532Z,1.08
2018-12-15T11:56:57.547Z,1.08
2018-12-15T11:57:57.549Z,1.06
2018-12-15T11:58:57.517Z,1.04
2018-12-15T11:59:57.493Z,1.00
2018-12-15T12:00:57.487Z,1.06
2018-12-15T12:01:57.469Z,1.06
2018-12-15T12:02:57.489Z,1.05
2018-12-15T12:03:57.455Z,1.09
2018-12-15T12:04:57.459Z,1.08
2018-12-15T12:05:57.447Z,1.11
2018-12-15T12:06:57.441Z,1.05
2018-12-15T12:07:57.435Z,1.11
2018-12-15T12:08:57.438Z,1.09
2018-12-15T12:09:57.390Z,1.04
2018-12-15T12:10:57.374Z,0.96
2018-12-15T12:11:57.370Z,1.09
2018-12-15T12:12:57.380Z,1.09
2018-12-15T12:14:00.283Z,1.08
2018-12-15T12:14:57.335Z,1.15
2018-12-15T12:15:57.331Z,1.15
2018-12-15T12:16:57.311Z,1.27
2018-12-15T12:17:57.362Z,1.33
2018-12-15T12:18:57.297Z,1.32
2018-12-15T12:19:57.281Z,1.30
2018-12-15T12:20:57.275Z,1.36
2018-12-15T12:21:57.254Z,1.37
2018-12-15T12:22:57.254Z,1.47
2018-12-15T12:23:58.951Z,1.42
2018-12-15T12:24:57.221Z,1.34
2018-12-15T12:25:57.223Z,1.41
2018-12-15T12:26:57.222Z,1.40
2018-12-15T12:27:57.523Z,1.47
2018-12-15T12:28:57.189Z,1.48
2018-12-15T12:29:57.230Z,1.45
2018-12-15T12:30:57.164Z,1.48
2018-12-15T12:31:57.160Z,1.41
2018-12-15T12:32:59.366Z,1.32
2018-12-15T12:33:57.159Z,1.40
2018-12-15T12:34:57.111Z,1.50
2018-12-15T12:35:57.100Z,1.36
2018-12-15T12:36:57.100Z,1.36
2018-12-15T12:37:57.079Z,1.47
2018-12-15T12:38:57.109Z,1.47
2018-12-15T12:39:57.066Z,1.42
2018-12-15T12:40:57.036Z,1.44
2018-12-15T12:41:57.037Z,1.34
2018-12-15T12:42:57.033Z,1.34
2018-12-15T12:43:57.040Z,1.32
2018-12-15T12:44:57.008Z,1.42
2018-12-15T12:45:57.009Z,1.32
2018-12-15T12:46:57.031Z,1.36
2018-12-15T12:47:56.979Z,1.29
2018-12-15T12:48:56.977Z,1.23
2018-12-15T12:49:57.114Z,1.26
2018-12-15T12:50:56.958Z,1.30
2018-12-15T12:51:56.959Z,1.27
2018-12-15T12:52:56.932Z,1.22
2018-12-15T12:53:56.927Z,1.26
2018-12-15T12:54:56.900Z,1.32
2018-12-15T12:55:56.883Z,1.32
2018-12-15T12:56:56.894Z,1.36
2018-12-15T12:57:56.855Z,1.32
2018-12-15T12:58:56.912Z,1.30
2018-12-15T12:59:56.850Z,1.33
2018-12-15T13:00:56.831Z,1.30
2018-12-15T13:01:56.819Z,1.36
2018-12-15T13:02:56.813Z,1.30
2018-12-15T13:03:56.811Z,1.29
2018-12-15T13:04:56.802Z,1.30
2018-12-15T13:05:56.783Z,1.32
2018-12-15T13:06:56.761Z,1.33
2018-12-15T13:07:56.754Z,1.36
2018-12-15T13:08:56.764Z,1.33
2018-12-15T13:09:56.729Z,1.37
2018-12-15T13:10:56.724Z,1.32
2018-12-15T13:11:56.705Z,1.29
2018-12-15T13:12:56.691Z,1.32
2018-12-15T13:13:56.696Z,1.33
2018-12-15T13:14:56.689Z,1.34
2018-12-15T13:15:56.669Z,1.33
2018-12-15T13:16:56.666Z,1.36
2018-12-15T13:17:56.637Z,1.30
2018-12-15T13:18:56.665Z,1.27
2018-12-15T13:20:00.610Z,1.37
2018-12-15T13:20:57.606Z,1.29